All Spectrum Aviation - Van Nuys Airport - KVNY

HOME

Van Nuys Tower Recordings

Condor Squadron KVNY Webcam

Visit our Electronics Store

Condor Squadron Webcam - Van Nuys Airport - KVNY
Picture taken: Mon, 20 Feb 2017 12:07:21 -0800
YouTube Channel!    Latest Timelapse Movie    Full Size Image    Regular Size Image    

2017/02/20 19:51 KVNY 201951Z 15008KT 4SM BR BKN009 OVC015 13/12 A3026 RMK AO2 CIG 006V014 SLP243 T01280122

HOME

Van Nuys Tower Recordings

Condor Squadron KVNY Webcam

Visit our Electronics Store